»·PEaware :: EJA220 KBFI-KHCR

EJA220 :: KBFI-KHCR

FLIGHT INFORMATION

Flight Status: Arrived
Operator:
Netjets Aviation
More flights by this operator :: More flights under this callsign
Pilot: Ethan S. (29221)
Aircraft: CANADAIR CL-600 CHALLENGER
(CL60)
More flights by this aircraft type
Origin: KBFI Boeing Field/King Co Intl
United States
Destination: KHCR Heber Valley
United States
More flights between these airports :: More routes between these airports
Route: NRVNA1 NRVNA SUMMA J54 BKE MLD COOLI
File this flight plan on PilotEdge
Remarks:
Altitude:
(Current/Filed)
37,000ft
Speed:
(Current/Filed)
465kts
Departed: 15-Nov-23 10:41 AM
Arrived: 15-Nov-23 12:14 PM
Distance/Time
Traveled:
631nm/1:33
Distance/Time
To Go:
Arrived

Flight Plot

Page will automatically refresh every two minutes.

Flight plan parsing failed; only flown route is shown


Map Options




Map Legend


Flown Route
Filed Route
Departure Airport
Arrival Airport
Navaid (VOR, NDB)
Fix

Horizontal Profiles

Position Reports

Time Latitude Longitude Heading Altitude Ground
Speed
15-Nov-23 10:06 47.537916 -122.305109 142 23ft 0kts
15-Nov-23 10:06 47.537916 -122.305109 142 23ft 0kts
15-Nov-23 10:07 47.537916 -122.305109 142 23ft 0kts
15-Nov-23 10:08 47.537916 -122.305109 142 23ft 0kts
15-Nov-23 10:09 47.537916 -122.305109 142 23ft 0kts
15-Nov-23 10:11 47.537916 -122.305109 142 23ft 0kts
15-Nov-23 10:11 47.537916 -122.305109 142 23ft 0kts
15-Nov-23 10:12 47.537916 -122.305109 142 23ft 0kts
15-Nov-23 10:13 47.537916 -122.305109 142 23ft 0kts
15-Nov-23 10:14 47.537916 -122.305109 142 23ft 0kts
15-Nov-23 10:15 47.537916 -122.305109 142 23ft 0kts
15-Nov-23 10:16 47.537916 -122.305109 142 23ft 0kts
15-Nov-23 10:17 47.537916 -122.305109 142 23ft 0kts
15-Nov-23 10:18 47.537916 -122.305109 142 23ft 0kts
15-Nov-23 10:19 47.537916 -122.305109 142 23ft 0kts
15-Nov-23 10:20 47.537916 -122.305109 142 23ft 0kts
15-Nov-23 10:21 47.537916 -122.305109 142 23ft 0kts
15-Nov-23 10:22 47.537916 -122.305109 142 23ft 0kts
15-Nov-23 10:23 47.537916 -122.305109 142 23ft 0kts
15-Nov-23 10:24 47.537916 -122.305109 142 23ft 0kts
15-Nov-23 10:25 47.537916 -122.305109 142 23ft 0kts
15-Nov-23 10:26 47.537916 -122.305109 142 23ft 0kts
15-Nov-23 10:27 47.537916 -122.305109 142 23ft 0kts
15-Nov-23 10:28 47.537693 -122.304939 168 23ft 6kts
15-Nov-23 10:29 47.537268 -122.305044 232 23ft 0kts
15-Nov-23 10:30 47.537268 -122.305044 232 23ft 0kts
15-Nov-23 10:31 47.537268 -122.305044 232 23ft 0kts
15-Nov-23 10:32 47.537268 -122.305044 232 23ft 0kts
15-Nov-23 10:33 47.537268 -122.305044 232 23ft 0kts
15-Nov-23 10:34 47.537268 -122.305044 232 23ft 0kts
15-Nov-23 10:35 47.537268 -122.305044 232 23ft 0kts
15-Nov-23 10:36 47.537232 -122.305111 231 23ft 0kts
15-Nov-23 10:37 47.537859 -122.306406 329 22ft 11kts
15-Nov-23 10:38 47.540307 -122.308502 323 23ft 0kts
15-Nov-23 10:39 47.540758 -122.309028 320 23ft 7kts
15-Nov-23 10:40 47.535835 -122.307399 150 22ft 127kts
15-Nov-23 10:41 47.487450 -122.266239 150 1773ft 216kts
15-Nov-23 10:42 47.437443 -122.224268 151 3655ft 213kts
15-Nov-23 10:43 47.385072 -122.180361 154 4826ft 218kts
15-Nov-23 10:44 47.319587 -122.160212 174 7749ft 272kts
15-Nov-23 10:45 47.242872 -122.141027 177 11838ft 306kts
15-Nov-23 10:46 47.155432 -122.119216 178 16216ft 333kts
15-Nov-23 10:47 47.060801 -122.095961 180 19992ft 351kts
15-Nov-23 10:48 46.962339 -122.071815 181 23119ft 369kts
15-Nov-23 10:49 46.858022 -122.046292 182 25842ft 387kts
15-Nov-23 10:50 46.750792 -122.019966 181 28325ft 395kts
15-Nov-23 10:51 46.641135 -121.989159 167 30214ft 426kts
15-Nov-23 10:52 46.560709 -121.846267 127 32118ft 482kts
15-Nov-23 10:53 46.494761 -121.678332 126 33877ft 480kts
15-Nov-23 10:54 46.428890 -121.512293 126 35621ft 472kts
15-Nov-23 10:55 46.363552 -121.349119 127 36729ft 476kts
15-Nov-23 10:56 46.294786 -121.178779 126 36706ft 500kts
15-Nov-23 10:57 46.223869 -121.004155 126 36702ft 506kts
15-Nov-23 10:58 46.152421 -120.829424 126 36607ft 507kts
15-Nov-23 10:59 46.080942 -120.655774 127 36585ft 503kts
15-Nov-23 11:00 46.009239 -120.482798 127 36520ft 504kts
15-Nov-23 11:01 45.937116 -120.309859 127 36453ft 503kts
15-Nov-23 11:02 45.864987 -120.138036 128 36433ft 503kts
15-Nov-23 11:03 45.792898 -119.967293 128 36437ft 501kts
15-Nov-23 11:04 45.720752 -119.797562 127 36480ft 499kts
15-Nov-23 11:05 45.648380 -119.628224 128 36496ft 499kts
15-Nov-23 11:06 45.575571 -119.458907 128 36495ft 499kts
15-Nov-23 11:07 45.503685 -119.292757 129 36514ft 497kts
15-Nov-23 11:08 45.430871 -119.125477 129 36529ft 499kts
15-Nov-23 11:09 45.357662 -118.958265 129 36543ft 496kts
15-Nov-23 11:10 45.284455 -118.792096 129 36564ft 497kts
15-Nov-23 11:11 45.211376 -118.627195 129 36570ft 495kts
15-Nov-23 11:12 45.137943 -118.462458 129 36558ft 495kts
15-Nov-23 11:13 45.064862 -118.299395 129 36541ft 494kts
15-Nov-23 11:14 44.991390 -118.136453 129 36529ft 492kts
15-Nov-23 11:15 44.917614 -117.973752 129 36536ft 493kts
15-Nov-23 11:16 44.843530 -117.811308 129 36541ft 495kts
15-Nov-23 11:17 44.769893 -117.647928 129 36511ft 497kts
15-Nov-23 11:18 44.695985 -117.484673 129 36528ft 496kts
15-Nov-23 11:19 44.622070 -117.322370 130 36536ft 494kts
15-Nov-23 11:20 44.548108 -117.160902 130 36552ft 494kts
15-Nov-23 11:21 44.473678 -116.999330 130 36561ft 495kts
15-Nov-23 11:22 44.398823 -116.837715 130 36591ft 495kts
15-Nov-23 11:23 44.323884 -116.676910 130 36618ft 495kts
15-Nov-23 11:24 44.248553 -116.516125 130 36627ft 496kts
15-Nov-23 11:25 44.173163 -116.356128 130 36644ft 496kts
15-Nov-23 11:26 44.097930 -116.197255 131 36667ft 494kts
15-Nov-23 11:27 44.022705 -116.039374 130 36706ft 494kts
15-Nov-23 11:28 43.946944 -115.881230 130 36773ft 496kts
15-Nov-23 11:29 43.871957 -115.725462 130 36783ft 495kts
15-Nov-23 11:30 43.795441 -115.567431 130 36782ft 496kts
15-Nov-23 11:31 43.718565 -115.409501 130 36778ft 496kts
15-Nov-23 11:32 43.641610 -115.252248 131 36783ft 494kts
15-Nov-23 11:33 43.564686 -115.095919 131 36803ft 495kts
15-Nov-23 11:34 43.487360 -114.939622 131 36834ft 495kts
15-Nov-23 11:35 43.409784 -114.783672 131 36829ft 495kts
15-Nov-23 11:36 43.332004 -114.628116 131 36814ft 495kts
15-Nov-23 11:37 43.253838 -114.472593 131 36789ft 495kts
15-Nov-23 11:38 43.175455 -114.317482 132 36751ft 493kts
15-Nov-23 11:39 43.097540 -114.164097 132 36751ft 493kts
15-Nov-23 11:40 43.018983 -114.010275 132 36748ft 494kts
15-Nov-23 11:41 42.940553 -113.857476 132 36758ft 494kts
15-Nov-23 11:42 42.862075 -113.705344 132 36792ft 494kts
15-Nov-23 11:43 42.782902 -113.552711 132 36801ft 496kts
15-Nov-23 11:44 42.703293 -113.399954 132 36811ft 497kts
15-Nov-23 11:45 42.623239 -113.247100 133 36805ft 496kts
15-Nov-23 11:46 42.543258 -113.095205 132 36827ft 495kts
15-Nov-23 11:47 42.462954 -112.943491 132 36850ft 498kts
15-Nov-23 11:48 42.381937 -112.791138 132 36854ft 499kts
15-Nov-23 11:49 42.300996 -112.639721 132 36864ft 497kts
15-Nov-23 11:50 42.218450 -112.491324 137 36894ft 491kts
15-Nov-23 11:51 42.120069 -112.368126 149 36939ft 480kts
15-Nov-23 11:52 42.014079 -112.258629 150 36944ft 480kts
15-Nov-23 11:53 41.908046 -112.149563 150 37001ft 482kts
15-Nov-23 11:54 41.803083 -112.041839 150 35421ft 466kts
15-Nov-23 11:55 41.701394 -111.937967 150 32878ft 453kts
15-Nov-23 11:56 41.603009 -111.837881 149 30636ft 445kts
15-Nov-23 11:57 41.505614 -111.738995 149 28418ft 430kts
15-Nov-23 11:58 41.412114 -111.644468 148 26272ft 416kts
15-Nov-23 11:59 41.321647 -111.553280 148 24511ft 400kts
15-Nov-23 12:00 41.234767 -111.466292 149 23314ft 392kts
15-Nov-23 12:01 41.148320 -111.379863 148 21375ft 384kts
15-Nov-23 12:02 41.060769 -111.319018 188 19385ft 330kts
15-Nov-23 12:03 40.973150 -111.333892 193 17448ft 310kts
15-Nov-23 12:04 40.890950 -111.349601 193 15540ft 283kts
15-Nov-23 12:05 40.821744 -111.362997 193 15511ft 242kts
15-Nov-23 12:06 40.762348 -111.374533 195 15423ft 196kts
15-Nov-23 12:07 40.707918 -111.385192 194 14305ft 199kts
15-Nov-23 12:08 40.654450 -111.379965 170 12497ft 189kts
15-Nov-23 12:09 40.605502 -111.363160 171 9805ft 173kts
15-Nov-23 12:10 40.563234 -111.358216 185 8828ft 138kts
15-Nov-23 12:11 40.525195 -111.365433 208 7600ft 141kts
15-Nov-23 12:12 40.499042 -111.402160 228 6085ft 134kts
15-Nov-23 12:13 40.480577 -111.430706 231 5616ft 19kts
15-Nov-23 12:14 40.480327 -111.429747 50 5618ft 9kts
15-Nov-23 12:15 40.482369 -111.426575 50 5624ft 12kts
15-Nov-23 12:16 40.483143 -111.424327 229 5627ft 0kts
15-Nov-23 12:17 40.483144 -111.424326 229 5627ft 0kts
15-Nov-23 12:18 40.483144 -111.424326 229 5627ft 0kts
15-Nov-23 12:19 40.483144 -111.424326 229 5627ft 0kts
15-Nov-23 12:20 40.483144 -111.424326 229 5627ft 0kts
15-Nov-23 12:21 40.483144 -111.424326 229 5627ft 0kts

Navigation Log

Ident Type
Flight plan parsing failed, navigation log unavailable